Ottawa Macdonald-Cartier International Airport (YOW/CYOW)



Flight Aircraft Arriving
CPX1803
CYHM - John C. Munro Hamilton International Airport
Canada Hamilton, Canada
CPX1871
CYFB - Iqaluit Airport
Canada Iqaluit, Canada
Flight Aircraft Departing
CPX1801
CYHM - John C. Munro Hamilton International Airport
Canada Hamilton, Canada
CPX1870
CYFB - Iqaluit Airport
Canada Iqaluit, Canada


Airport Information
Location: Ottawa,
Coordinates: 45.3225 / -75.6692
Field Elevation: 374ft
Longest Runway: 10,010ft
ILS Approaches: YES
Landing Fees: $1,542 per flight
Jet A Price: $0.38/lbs

Current Weather
METAR:
Not available
TAF: TAF AMD CYOW 160606Z 1606/1706 07010KT P6SM -SHRA SCT007 OVC030 TEMPO 1606/1608 4SM -SHRA BR BKN002 OVC007 FM160800 09005KT 2SM SHRA BR OVC003 TEMPO 1608/1615 6SM -SHRA BR SCT003 BKN006 OVC060 PROB30 1612/1615 VRB15G25KT 11/2SM TSRA BR OVC003CB FM161500 28009KT 21/2SM -SHRA BR OVC008 TEMPO 1615/1618 4SM -SHRA BR SCT008 OVC012 FM161800 25008KT 4SM -SHRA BR BKN008 OVC012 FM162300 28012G22KT P6SM -SHRA BKN012 OVC080 FM170500 27010KT P6SM BKN015 OVC030 RMK NXT FCST BY 160900Z

Recent Arrivals
Date Flight Type Depart
09/09/2021 CPX1801 B763 John C. Munro Hamilton Intl (CYHM)
Recent Departures
No reports have been found
Date Flight Type Arrive